BSMN22 YSHW-YSNW
Flight info
| Callsign | BSMN22 |
|---|---|
| Flight time | 0h 21m |
| Altitude | 3500 |
| Route | DCT YSHW NWA JBY NWA DCT |
| Aircraft | H60/M-SDFGRY/LB1 |
Departure
| Time | 2026-05-04 07:01 |
|---|---|
| Airport | Holsworthy (Military) Airport (YSHW) |
Arrival
| Time | 2026-05-04 07:22 |
|---|---|
| Airport | Naval Air Station Nowra - HMAS Albatross (YSNW) |
| Time | Latitude | Longitude | Altitude | Speed | Heading |
|---|---|---|---|---|---|
| 2026-05-04 06:36 | -33.99512 | 150.95323 | 254 ft | 0 kts | 123° |
| 2026-05-04 06:57 | -33.99550 | 150.95329 | 256 ft | 3 kts | 212° |
| 2026-05-04 06:58 | -33.99564 | 150.95319 | 257 ft | 0 kts | 213° |
| 2026-05-04 06:58 | -33.99580 | 150.95305 | 257 ft | 4 kts | 213° |
| 2026-05-04 06:58 | -33.99599 | 150.95278 | 258 ft | 3 kts | 291° |
| 2026-05-04 06:59 | -33.99596 | 150.95272 | 258 ft | 0 kts | 306° |
| 2026-05-04 07:01 | -34.01733 | 150.93496 | 955 ft | 141 kts | 176° |
| 2026-05-04 07:01 | -34.02783 | 150.93543 | 1030 ft | 154 kts | 186° |
| 2026-05-04 07:02 | -34.03788 | 150.93188 | 1099 ft | 153 kts | 205° |
| 2026-05-04 07:02 | -34.04795 | 150.92698 | 1106 ft | 157 kts | 204° |
| 2026-05-04 07:02 | -34.05828 | 150.92176 | 1108 ft | 157 kts | 204° |
| 2026-05-04 07:02 | -34.06903 | 150.91642 | 1429 ft | 181 kts | 206° |
| 2026-05-04 07:03 | -34.08229 | 150.91245 | 1345 ft | 206 kts | 190° |
| 2026-05-04 07:03 | -34.09608 | 150.90945 | 1683 ft | 197 kts | 193° |
| 2026-05-04 07:03 | -34.10993 | 150.90585 | 1764 ft | 211 kts | 194° |
| 2026-05-04 07:03 | -34.12428 | 150.90223 | 1791 ft | 210 kts | 195° |
| 2026-05-04 07:04 | -34.13832 | 150.89726 | 1692 ft | 217 kts | 201° |
| 2026-05-04 07:04 | -34.15241 | 150.89094 | 1607 ft | 209 kts | 204° |
| 2026-05-04 07:04 | -34.16661 | 150.88775 | 1664 ft | 208 kts | 184° |
| 2026-05-04 07:04 | -34.18102 | 150.88628 | 1826 ft | 205 kts | 186° |
| 2026-05-04 07:05 | -34.19513 | 150.88440 | 2109 ft | 204 kts | 190° |
| 2026-05-04 07:05 | -34.20959 | 150.88425 | 2209 ft | 211 kts | 179° |
| 2026-05-04 07:05 | -34.22451 | 150.88575 | 1995 ft | 214 kts | 175° |
| 2026-05-04 07:05 | -34.23873 | 150.88789 | 2222 ft | 201 kts | 174° |
| 2026-05-04 07:06 | -34.26734 | 150.89208 | 2104 ft | 207 kts | 172° |
| 2026-05-04 07:06 | -34.28183 | 150.89473 | 2009 ft | 214 kts | 169° |
| 2026-05-04 07:06 | -34.29625 | 150.89954 | 1818 ft | 214 kts | 159° |
| 2026-05-04 07:07 | -34.30982 | 150.90673 | 1209 ft | 221 kts | 153° |
| 2026-05-04 07:08 | -34.40577 | 150.90967 | 520 ft | 198 kts | 179° |
| 2026-05-04 07:09 | -34.41939 | 150.91091 | 717 ft | 194 kts | 176° |
| 2026-05-04 07:09 | -34.43296 | 150.91082 | 864 ft | 203 kts | 182° |
| 2026-05-04 07:09 | -34.44753 | 150.91032 | 650 ft | 212 kts | 178° |
| 2026-05-04 07:09 | -34.46176 | 150.91237 | 770 ft | 204 kts | 171° |
| 2026-05-04 07:10 | -34.47592 | 150.91541 | 806 ft | 207 kts | 169° |
| 2026-05-04 07:10 | -34.48985 | 150.91693 | 831 ft | 195 kts | 198° |
| 2026-05-04 07:12 | -34.57565 | 150.86962 | 661 ft | 208 kts | 189° |
| 2026-05-04 07:12 | -34.58986 | 150.86753 | 759 ft | 203 kts | 188° |
| 2026-05-04 07:12 | -34.60395 | 150.86514 | 797 ft | 207 kts | 189° |
| 2026-05-04 07:12 | -34.61824 | 150.86267 | 795 ft | 201 kts | 187° |
| 2026-05-04 07:13 | -34.63188 | 150.86250 | 1092 ft | 200 kts | 182° |
| 2026-05-04 07:13 | -34.64626 | 150.86209 | 1052 ft | 210 kts | 181° |
| 2026-05-04 07:13 | -34.66063 | 150.86065 | 1149 ft | 204 kts | 187° |
| 2026-05-04 07:14 | -34.71706 | 150.84992 | 1264 ft | 203 kts | 198° |
| 2026-05-04 07:14 | -34.73067 | 150.84463 | 1284 ft | 208 kts | 202° |
| 2026-05-04 07:15 | -34.74463 | 150.83839 | 954 ft | 219 kts | 199° |
| 2026-05-04 07:15 | -34.75854 | 150.83313 | 996 ft | 202 kts | 201° |
| 2026-05-04 07:15 | -34.77109 | 150.82645 | 1151 ft | 192 kts | 224° |
| 2026-05-04 07:15 | -34.77608 | 150.81253 | 1271 ft | 178 kts | 261° |
| 2026-05-04 07:16 | -34.77905 | 150.79765 | 1454 ft | 187 kts | 260° |
| 2026-05-04 07:16 | -34.78173 | 150.78189 | 1443 ft | 193 kts | 262° |
| 2026-05-04 07:16 | -34.78633 | 150.76689 | 1511 ft | 194 kts | 245° |
| 2026-05-04 07:16 | -34.79388 | 150.75273 | 1415 ft | 202 kts | 240° |
| 2026-05-04 07:17 | -34.80084 | 150.73822 | 1434 ft | 197 kts | 246° |
| 2026-05-04 07:17 | -34.80762 | 150.72365 | 1416 ft | 197 kts | 242° |
| 2026-05-04 07:17 | -34.81565 | 150.70996 | 1313 ft | 204 kts | 233° |
| 2026-05-04 07:17 | -34.82487 | 150.69728 | 1348 ft | 199 kts | 230° |
| 2026-05-04 07:18 | -34.83388 | 150.68424 | 1254 ft | 203 kts | 234° |
| 2026-05-04 07:18 | -34.84250 | 150.67061 | 1172 ft | 204 kts | 236° |
| 2026-05-04 07:18 | -34.85087 | 150.65710 | 1223 ft | 197 kts | 236° |
| 2026-05-04 07:18 | -34.85927 | 150.64397 | 1327 ft | 196 kts | 233° |
| 2026-05-04 07:19 | -34.86722 | 150.63024 | 1246 ft | 200 kts | 239° |
| 2026-05-04 07:19 | -34.87507 | 150.61682 | 1201 ft | 188 kts | 234° |
| 2026-05-04 07:19 | -34.88345 | 150.60535 | 1276 ft | 180 kts | 230° |
| 2026-05-04 07:19 | -34.89197 | 150.59400 | 1271 ft | 180 kts | 231° |
| 2026-05-04 07:20 | -34.90003 | 150.58283 | 1372 ft | 178 kts | 232° |
| 2026-05-04 07:20 | -34.90818 | 150.57149 | 1406 ft | 177 kts | 233° |
| 2026-05-04 07:20 | -34.91493 | 150.55883 | 1355 ft | 179 kts | 244° |
| 2026-05-04 07:20 | -34.92051 | 150.54524 | 1328 ft | 176 kts | 250° |
| 2026-05-04 07:22 | -34.94835 | 150.53315 | 361 ft | 4 kts | 91° |
| 2026-05-04 07:22 | -34.94835 | 150.53325 | 361 ft | 8 kts | 94° |
| 2026-05-04 07:23 | -34.94844 | 150.53434 | 363 ft | 17 kts | 95° |
| 2026-05-04 07:23 | -34.94851 | 150.53591 | 362 ft | 18 kts | 93° |
| 2026-05-04 07:23 | -34.94822 | 150.53718 | 365 ft | 14 kts | 45° |
| 2026-05-04 07:23 | -34.94770 | 150.53797 | 363 ft | 11 kts | 88° |
| 2026-05-04 07:24 | -34.94776 | 150.53903 | 363 ft | 16 kts | 90° |
| 2026-05-04 07:24 | -34.94758 | 150.54010 | 364 ft | 11 kts | 46° |
| 2026-05-04 07:24 | -34.94697 | 150.54083 | 362 ft | 17 kts | 43° |
| 2026-05-04 07:24 | -34.94626 | 150.54167 | 364 ft | 11 kts | 43° |
| 2026-05-04 07:25 | -34.94582 | 150.54222 | 364 ft | 7 kts | 46° |
| 2026-05-04 07:26 | -34.93967 | 150.54918 | 365 ft | 18 kts | 45° |
| 2026-05-04 07:27 | -34.93924 | 150.55029 | 365 ft | 10 kts | 104° |
| 2026-05-04 07:27 | -34.93911 | 150.55044 | 365 ft | 0 kts | 326° |
| 2026-05-04 07:28 | -34.93911 | 150.55043 | 365 ft | 0 kts | 313° |